PWSweather.com
Personal Weather Stations
Station Observations
IABRUZZO83
Chieti, ChietiIT

ChietiChietiIT

Lat: 42.3485, Lon: 14.164

Elevation: 330

Station Type: davis vantage pro 2

http://www.tempochieti.altervista.org

Latest ConditionsUpdated 5:15:16 AM GMT+01:01 Tuesday, Oct 23, 2018
Currently Today's Max Today's Min Today's Average
Temperature 53.8°F12.1°C 53.9°F12.2°C 51.2°F10.7°C 52.9°F11.6°C
Dew Point 49.7°F9.8°C 51.7°F10.9°C 49.6°F9.8°C 50.5°F10.3°C
Winds Calm Calm 14.0 mph -22.5 kmh - - 4.6 mph 7.4 kmh
Wind Gusts 4.0 mph6.4 kmh 16.0 mph25.7 kmh - -
Humidity 86% 99% 86% 92%
Pressure 29.99 in1015.6 mb 30.00 in1015.9 mb 29.96 in1014.6 mb -
Hour Temp Dew Point Humidity Winds Wind Gusts Pressure Precip Precip Rate Daily Precip Total
05:15 AM 53.8°F12.1°C 49.7°F9.8°C 86% Calm Calm 4.0 mph6.4 kmh 29.99 in1015.6 mb 0.00 in0.0 mm 0.00 in0.0 mm 0.04 in1.0 mm
05:10 AM 53.8°F12.1°C 49.7°F9.8°C 86% 3.0 mph NW4.8 kmh NW 11.0 mph17.7 kmh 29.99 in1015.6 mb 0.00 in0.0 mm 0.00 in0.0 mm 0.04 in1.0 mm
05:05 AM 53.8°F12.1°C 49.7°F9.8°C 86% 5.0 mph WNW8.0 kmh WNW 11.0 mph17.7 kmh 29.99 in1015.6 mb 0.00 in0.0 mm 0.00 in0.0 mm 0.04 in1.0 mm
05:00 AM 53.7°F12.1°C 49.6°F9.8°C 86% 5.0 mph NW8.0 kmh NW 8.0 mph12.9 kmh 29.99 in1015.6 mb 0.00 in0.0 mm 0.00 in0.0 mm 0.04 in1.0 mm
04:55 AM 53.7°F12.1°C 49.6°F9.8°C 86% 4.0 mph WNW6.4 kmh WNW 7.0 mph11.3 kmh 29.99 in1015.6 mb 0.00 in0.0 mm 0.00 in0.0 mm 0.04 in1.0 mm
04:50 AM 53.8°F12.1°C 49.7°F9.8°C 86% 6.0 mph NW9.7 kmh NW 8.0 mph12.9 kmh 29.99 in1015.6 mb 0.00 in0.0 mm 0.00 in0.0 mm 0.04 in1.0 mm
04:45 AM 53.9°F12.2°C 49.8°F9.9°C 86% 10.0 mph NW16.1 kmh NW 10.0 mph16.1 kmh 30.00 in1015.9 mb 0.00 in0.0 mm 0.00 in0.0 mm 0.04 in1.0 mm
04:40 AM 53.8°F12.1°C 49.7°F9.8°C 86% 4.0 mph NW6.4 kmh NW 5.0 mph8.0 kmh 29.99 in1015.6 mb 0.00 in0.0 mm 0.00 in0.0 mm 0.04 in1.0 mm
04:35 AM 53.7°F12.1°C 49.6°F9.8°C 86% 6.0 mph W9.7 kmh W 9.0 mph14.5 kmh 29.99 in1015.6 mb 0.00 in0.0 mm 0.00 in0.0 mm 0.04 in1.0 mm
04:30 AM 53.7°F12.1°C 49.9°F9.9°C 87% 4.0 mph NW6.4 kmh NW 8.0 mph12.9 kmh 29.99 in1015.6 mb 0.00 in0.0 mm 0.00 in0.0 mm 0.04 in1.0 mm
04:25 AM 53.5°F11.9°C 49.7°F9.8°C 87% 3.0 mph W4.8 kmh W 9.0 mph14.5 kmh 29.99 in1015.6 mb 0.00 in0.0 mm 0.00 in0.0 mm 0.04 in1.0 mm
04:20 AM 53.5°F11.9°C 49.7°F9.8°C 87% 5.0 mph NW8.0 kmh NW 8.0 mph12.9 kmh 29.99 in1015.6 mb 0.00 in0.0 mm 0.00 in0.0 mm 0.04 in1.0 mm
04:15 AM 53.5°F11.9°C 49.7°F9.8°C 87% Calm Calm 3.0 mph4.8 kmh 29.99 in1015.6 mb 0.00 in0.0 mm 0.00 in0.0 mm 0.04 in1.0 mm
04:10 AM 53.4°F11.9°C 49.6°F9.8°C 87% 10.0 mph NW16.1 kmh NW 11.0 mph17.7 kmh 29.99 in1015.6 mb 0.00 in0.0 mm 0.00 in0.0 mm 0.04 in1.0 mm
04:05 AM 53.4°F11.9°C 49.6°F9.8°C 87% 7.0 mph NW11.3 kmh NW 13.0 mph20.9 kmh 29.99 in1015.6 mb 0.00 in0.0 mm 0.00 in0.0 mm 0.04 in1.0 mm
04:00 AM 53.6°F12.0°C 49.8°F9.9°C 87% 8.0 mph NW12.9 kmh NW 10.0 mph16.1 kmh 29.99 in1015.6 mb 0.00 in0.0 mm 0.00 in0.0 mm 0.04 in1.0 mm
03:55 AM 53.5°F11.9°C 49.7°F9.8°C 87% Calm Calm 1.0 mph1.6 kmh 29.99 in1015.6 mb 0.00 in0.0 mm 0.00 in0.0 mm 0.04 in1.0 mm
03:50 AM 53.5°F11.9°C 50.0°F10.0°C 88% 4.0 mph NW6.4 kmh NW 9.0 mph14.5 kmh 29.98 in1015.2 mb 0.00 in0.0 mm 0.00 in0.0 mm 0.04 in1.0 mm
03:45 AM 53.5°F11.9°C 50.0°F10.0°C 88% 11.0 mph NW17.7 kmh NW 13.0 mph20.9 kmh 29.99 in1015.6 mb 0.00 in0.0 mm 0.00 in0.0 mm 0.04 in1.0 mm
03:40 AM 53.4°F11.9°C 49.9°F9.9°C 88% 2.0 mph NW3.2 kmh NW 11.0 mph17.7 kmh 29.99 in1015.6 mb 0.00 in0.0 mm 0.00 in0.0 mm 0.04 in1.0 mm
03:35 AM 53.4°F11.9°C 49.9°F9.9°C 88% 10.0 mph NW16.1 kmh NW 10.0 mph16.1 kmh 29.98 in1015.2 mb 0.00 in0.0 mm 0.00 in0.0 mm 0.04 in1.0 mm
03:30 AM 53.3°F11.8°C 49.8°F9.9°C 88% Calm Calm 4.0 mph6.4 kmh 29.98 in1015.2 mb 0.00 in0.0 mm 0.00 in0.0 mm 0.04 in1.0 mm
03:25 AM 53.5°F11.9°C 50.0°F10.0°C 88% Calm Calm 1.0 mph1.6 kmh 29.98 in1015.2 mb 0.00 in0.0 mm 0.00 in0.0 mm 0.04 in1.0 mm
03:20 AM 53.4°F11.9°C 49.9°F9.9°C 88% 14.0 mph NW22.5 kmh NW 14.0 mph22.5 kmh 29.98 in1015.2 mb 0.00 in0.0 mm 0.00 in0.0 mm 0.04 in1.0 mm
03:15 AM 53.4°F11.9°C 50.3°F10.2°C 89% 4.0 mph NW6.4 kmh NW 9.0 mph14.5 kmh 29.98 in1015.2 mb 0.00 in0.0 mm 0.00 in0.0 mm 0.04 in1.0 mm
03:10 AM 53.4°F11.9°C 49.9°F9.9°C 88% 5.0 mph NW8.0 kmh NW 10.0 mph16.1 kmh 29.98 in1015.2 mb 0.00 in0.0 mm 0.00 in0.0 mm 0.04 in1.0 mm
03:05 AM 53.4°F11.9°C 49.9°F9.9°C 88% 9.0 mph NNW14.5 kmh NNW 13.0 mph20.9 kmh 29.98 in1015.2 mb 0.00 in0.0 mm 0.00 in0.0 mm 0.04 in1.0 mm
03:00 AM 53.3°F11.8°C 50.2°F10.1°C 89% 12.0 mph NW19.3 kmh NW 12.0 mph19.3 kmh 29.98 in1015.2 mb 0.00 in0.0 mm 0.00 in0.0 mm 0.04 in1.0 mm
02:55 AM 53.3°F11.8°C 50.2°F10.1°C 89% 8.0 mph NW12.9 kmh NW 9.0 mph14.5 kmh 29.98 in1015.2 mb 0.00 in0.0 mm 0.00 in0.0 mm 0.04 in1.0 mm
02:50 AM 53.3°F11.8°C 50.2°F10.1°C 89% 6.0 mph NW9.7 kmh NW 10.0 mph16.1 kmh 29.98 in1015.2 mb 0.00 in0.0 mm 0.00 in0.0 mm 0.04 in1.0 mm
02:45 AM 53.4°F11.9°C 50.3°F10.2°C 89% 8.0 mph NNW12.9 kmh NNW 10.0 mph16.1 kmh 29.98 in1015.2 mb 0.00 in0.0 mm 0.00 in0.0 mm 0.04 in1.0 mm
02:40 AM 53.2°F11.8°C 50.4°F10.2°C 90% 9.0 mph NW14.5 kmh NW 11.0 mph17.7 kmh 29.98 in1015.2 mb 0.00 in0.0 mm 0.00 in0.0 mm 0.04 in1.0 mm
02:35 AM 53.1°F11.7°C 50.3°F10.2°C 90% 3.0 mph NW4.8 kmh NW 9.0 mph14.5 kmh 29.98 in1015.2 mb 0.00 in0.0 mm 0.00 in0.0 mm 0.04 in1.0 mm
02:30 AM 53.1°F11.7°C 50.6°F10.3°C 91% 1.0 mph NW1.6 kmh NW 2.0 mph3.2 kmh 29.97 in1014.9 mb 0.00 in0.0 mm 0.00 in0.0 mm 0.04 in1.0 mm
02:25 AM 53.0°F11.7°C 50.5°F10.3°C 91% 9.0 mph NW14.5 kmh NW 10.0 mph16.1 kmh 29.98 in1015.2 mb 0.00 in0.0 mm 0.00 in0.0 mm 0.04 in1.0 mm
02:20 AM 53.0°F11.7°C 50.5°F10.3°C 91% Calm Calm 8.0 mph12.9 kmh 29.97 in1014.9 mb 0.00 in0.0 mm 0.00 in0.0 mm 0.04 in1.0 mm
02:15 AM 53.1°F11.7°C 50.6°F10.3°C 91% 13.0 mph NW20.9 kmh NW 13.0 mph20.9 kmh 29.97 in1014.9 mb 0.00 in0.0 mm 0.00 in0.0 mm 0.04 in1.0 mm
02:10 AM 53.1°F11.7°C 50.8°F10.4°C 92% 5.0 mph NW8.0 kmh NW 16.0 mph25.7 kmh 29.97 in1014.9 mb 0.00 in0.0 mm 0.00 in0.0 mm 0.04 in1.0 mm
02:05 AM 52.9°F11.6°C 50.6°F10.3°C 92% 4.0 mph NW6.4 kmh NW 7.0 mph11.3 kmh 29.97 in1014.9 mb 0.00 in0.0 mm 0.00 in0.0 mm 0.04 in1.0 mm
02:00 AM 52.9°F11.6°C 50.9°F10.5°C 93% 2.0 mph NNW3.2 kmh NNW 5.0 mph8.0 kmh 29.97 in1014.9 mb 0.00 in0.0 mm 0.00 in0.0 mm 0.04 in1.0 mm
01:55 AM 52.8°F11.6°C 50.8°F10.4°C 93% 3.0 mph NW4.8 kmh NW 12.0 mph19.3 kmh 29.97 in1014.9 mb 0.00 in0.0 mm 0.00 in0.0 mm 0.04 in1.0 mm
01:50 AM 52.8°F11.6°C 50.8°F10.4°C 93% 2.0 mph NNW3.2 kmh NNW 4.0 mph6.4 kmh 29.97 in1014.9 mb 0.00 in0.0 mm 0.00 in0.0 mm 0.04 in1.0 mm
01:45 AM 52.7°F11.5°C 51.0°F10.6°C 94% 6.0 mph NW9.7 kmh NW 6.0 mph9.7 kmh 29.97 in1014.9 mb 0.00 in0.0 mm 0.00 in0.0 mm 0.04 in1.0 mm
01:40 AM 52.7°F11.5°C 51.0°F10.6°C 94% Calm Calm 2.0 mph3.2 kmh 29.97 in1014.9 mb 0.00 in0.0 mm 0.00 in0.0 mm 0.04 in1.0 mm
01:35 AM 52.6°F11.4°C 51.2°F10.7°C 95% 9.0 mph N14.5 kmh N 9.0 mph14.5 kmh 29.97 in1014.9 mb 0.00 in0.0 mm 0.00 in0.0 mm 0.04 in1.0 mm
01:30 AM 52.4°F11.3°C 51.3°F10.7°C 96% 3.0 mph WNW4.8 kmh WNW 8.0 mph12.9 kmh 29.97 in1014.9 mb 0.00 in0.0 mm 0.00 in0.0 mm 0.04 in1.0 mm
01:25 AM 52.4°F11.3°C 51.6°F10.9°C 97% 5.0 mph NNW8.0 kmh NNW 5.0 mph8.0 kmh 29.97 in1014.9 mb 0.00 in0.0 mm 0.00 in0.0 mm 0.04 in1.0 mm
01:20 AM 52.3°F11.3°C 51.5°F10.8°C 97% Calm Calm -- 29.97 in1014.9 mb 0.00 in0.0 mm 0.00 in0.0 mm 0.04 in1.0 mm
01:15 AM 52.2°F11.2°C 51.7°F10.9°C 98% Calm Calm 9.0 mph14.5 kmh 29.97 in1014.9 mb 0.00 in0.0 mm 0.00 in0.0 mm 0.04 in1.0 mm
01:10 AM 52.2°F11.2°C 51.7°F10.9°C 98% 1.0 mph NW1.6 kmh NW 11.0 mph17.7 kmh 29.97 in1014.9 mb 0.00 in0.0 mm 0.00 in0.0 mm 0.04 in1.0 mm
01:05 AM 52.1°F11.2°C 51.6°F10.9°C 98% 9.0 mph NW14.5 kmh NW 12.0 mph19.3 kmh 29.97 in1014.9 mb 0.00 in0.0 mm 0.00 in0.0 mm 0.04 in1.0 mm
01:00 AM 52.0°F11.1°C 51.7°F10.9°C 99% 2.0 mph NNW3.2 kmh NNW 12.0 mph19.3 kmh 29.96 in1014.6 mb 0.00 in0.0 mm 0.00 in0.0 mm 0.04 in1.0 mm
12:55 AM 51.9°F11.1°C 51.6°F10.9°C 99% 1.0 mph NNW1.6 kmh NNW 10.0 mph16.1 kmh 29.97 in1014.9 mb 0.00 in0.0 mm 0.00 in0.0 mm 0.04 in1.0 mm
12:50 AM 51.8°F11.0°C 51.5°F10.8°C 99% 8.0 mph N12.9 kmh N 11.0 mph17.7 kmh 29.97 in1014.9 mb 0.00 in0.0 mm 0.00 in0.0 mm 0.04 in1.0 mm
12:45 AM 51.7°F10.9°C 51.4°F10.8°C 99% Calm Calm 3.0 mph4.8 kmh 29.97 in1014.9 mb 0.00 in0.0 mm 0.00 in0.0 mm 0.04 in1.0 mm
12:40 AM 51.7°F10.9°C 51.4°F10.8°C 99% 1.0 mph N1.6 kmh N 3.0 mph4.8 kmh 29.96 in1014.6 mb 0.01 in0.3 mm 0.00 in0.0 mm 0.04 in1.0 mm
12:35 AM 51.5°F10.8°C 51.2°F10.7°C 99% 1.0 mph NNW1.6 kmh NNW 5.0 mph8.0 kmh 29.96 in1014.6 mb 0.01 in0.3 mm 0.00 in0.0 mm 0.04 in1.0 mm
12:30 AM 51.3°F10.7°C 51.0°F10.6°C 99% 9.0 mph NNW14.5 kmh NNW 12.0 mph19.3 kmh 29.96 in1014.6 mb 0.01 in0.3 mm 0.00 in0.0 mm 0.04 in1.0 mm
12:25 AM 51.2°F10.7°C 50.9°F10.5°C 99% 12.0 mph NW19.3 kmh NW 13.0 mph20.9 kmh 29.96 in1014.6 mb 0.02 in0.5 mm 0.00 in0.0 mm 0.04 in1.0 mm
12:20 AM 51.2°F10.7°C 50.9°F10.5°C 99% Calm Calm 4.0 mph6.4 kmh 29.96 in1014.6 mb 0.02 in0.5 mm 0.00 in0.0 mm 0.04 in1.0 mm
12:15 AM 51.3°F10.7°C 51.0°F10.6°C 99% 4.0 mph N6.4 kmh N 6.0 mph9.7 kmh 29.96 in1014.6 mb 0.03 in0.8 mm 0.00 in0.0 mm 0.04 in1.0 mm
12:10 AM 51.3°F10.7°C 51.0°F10.6°C 99% Calm Calm -- 29.96 in1014.6 mb 0.04 in1.0 mm 0.00 in0.0 mm 0.04 in1.0 mm
12:05 AM 51.3°F10.7°C 51.0°F10.6°C 99% 2.0 mph NNW3.2 kmh NNW 8.0 mph12.9 kmh 29.96 in1014.6 mb 0.04 in1.0 mm 0.00 in0.0 mm 0.04 in1.0 mm
12:00 AM 51.4°F10.8°C 51.1°F10.6°C 99% Calm Calm 2.0 mph3.2 kmh 29.96 in1014.6 mb 0.04 in1.0 mm 0.00 in0.0 mm 0.04 in1.0 mm